sensor_id;sensor_type;location;lat;lon;timestamp;P1;durP1;ratioP1;P2;durP2;ratioP2
20203;SDS011;10261;49.010;12.034;2023-07-30T00:00:25;8.02;;;2.67;;
20203;SDS011;10261;49.010;12.034;2023-07-30T00:01:28;2.78;;;2.58;;
20203;SDS011;10261;49.010;12.034;2023-07-30T00:02:30;5.80;;;2.65;;
20203;SDS011;10261;49.010;12.034;2023-07-30T00:03:33;5.38;;;3.50;;
20203;SDS011;10261;49.010;12.034;2023-07-30T00:04:35;2.72;;;2.53;;
20203;SDS011;10261;49.010;12.034;2023-07-30T00:05:39;7.28;;;3.42;;
20203;SDS011;10261;49.010;12.034;2023-07-30T00:06:41;4.63;;;3.10;;
20203;SDS011;10261;49.010;12.034;2023-07-30T00:07:44;3.13;;;2.83;;
20203;SDS011;10261;49.010;12.034;2023-07-30T00:08:47;5.53;;;3.10;;
20203;SDS011;10261;49.010;12.034;2023-07-30T00:09:50;7.55;;;2.83;;
20203;SDS011;10261;49.010;12.034;2023-07-30T00:10:52;6.60;;;3.10;;
20203;SDS011;10261;49.010;12.034;2023-07-30T00:11:55;3.25;;;2.95;;
20203;SDS011;10261;49.010;12.034;2023-07-30T00:12:57;4.78;;;3.05;;
20203;SDS011;10261;49.010;12.034;2023-07-30T00:14:00;4.38;;;3.38;;
20203;SDS011;10261;49.010;12.034;2023-07-30T00:15:02;3.13;;;2.83;;
20203;SDS011;10261;49.010;12.034;2023-07-30T00:16:05;3.92;;;3.13;;
20203;SDS011;10261;49.010;12.034;2023-07-30T00:17:07;4.30;;;2.40;;
20203;SDS011;10261;49.010;12.034;2023-07-30T00:18:10;2.70;;;2.50;;
20203;SDS011;10261;49.010;12.034;2023-07-30T00:19:12;3.67;;;3.00;;
20203;SDS011;10261;49.010;12.034;2023-07-30T00:20:15;3.55;;;3.25;;
20203;SDS011;10261;49.010;12.034;2023-07-30T00:21:18;3.15;;;2.85;;
20203;SDS011;10261;49.010;12.034;2023-07-30T00:22:21;5.47;;;2.90;;
20203;SDS011;10261;49.010;12.034;2023-07-30T00:23:24;4.40;;;2.80;;
20203;SDS011;10261;49.010;12.034;2023-07-30T00:24:27;6.25;;;2.60;;
20203;SDS011;10261;49.010;12.034;2023-07-30T00:25:29;3.00;;;2.60;;
20203;SDS011;10261;49.010;12.034;2023-07-30T00:26:32;4.10;;;2.72;;
20203;SDS011;10261;49.010;12.034;2023-07-30T00:27:34;2.88;;;2.67;;
20203;SDS011;10261;49.010;12.034;2023-07-30T00:28:37;2.95;;;2.58;;
20203;SDS011;10261;49.010;12.034;2023-07-30T00:29:39;3.90;;;3.00;;
20203;SDS011;10261;49.010;12.034;2023-07-30T00:30:41;3.30;;;2.40;;
20203;SDS011;10261;49.010;12.034;2023-07-30T00:31:44;2.83;;;2.60;;
20203;SDS011;10261;49.010;12.034;2023-07-30T00:32:47;4.20;;;2.90;;
20203;SDS011;10261;49.010;12.034;2023-07-30T00:33:49;4.80;;;2.80;;
20203;SDS011;10261;49.010;12.034;2023-07-30T00:34:52;3.80;;;3.13;;
20203;SDS011;10261;49.010;12.034;2023-07-30T00:35:54;4.47;;;3.05;;
20203;SDS011;10261;49.010;12.034;2023-07-30T00:36:58;4.95;;;3.00;;
20203;SDS011;10261;49.010;12.034;2023-07-30T00:38:00;4.63;;;2.92;;
20203;SDS011;10261;49.010;12.034;2023-07-30T00:39:03;4.55;;;3.00;;
20203;SDS011;10261;49.010;12.034;2023-07-30T00:40:06;4.68;;;2.90;;
20203;SDS011;10261;49.010;12.034;2023-07-30T00:41:09;4.88;;;3.28;;
20203;SDS011;10261;49.010;12.034;2023-07-30T00:42:11;3.30;;;2.85;;
20203;SDS011;10261;49.010;12.034;2023-07-30T00:43:14;3.97;;;3.20;;
20203;SDS011;10261;49.010;12.034;2023-07-30T00:44:16;3.40;;;2.90;;
20203;SDS011;10261;49.010;12.034;2023-07-30T00:45:19;3.50;;;2.75;;
20203;SDS011;10261;49.010;12.034;2023-07-30T00:46:21;4.78;;;2.90;;
20203;SDS011;10261;49.010;12.034;2023-07-30T00:47:24;3.10;;;2.80;;
20203;SDS011;10261;49.010;12.034;2023-07-30T00:48:27;5.50;;;3.17;;
20203;SDS011;10261;49.010;12.034;2023-07-30T00:49:30;3.05;;;2.20;;
20203;SDS011;10261;49.010;12.034;2023-07-30T00:50:32;3.45;;;3.10;;
20203;SDS011;10261;49.010;12.034;2023-07-30T00:51:35;4.05;;;2.90;;
20203;SDS011;10261;49.010;12.034;2023-07-30T00:52:40;5.68;;;3.22;;
20203;SDS011;10261;49.010;12.034;2023-07-30T00:53:43;2.65;;;2.35;;
20203;SDS011;10261;49.010;12.034;2023-07-30T00:54:45;3.17;;;2.72;;
20203;SDS011;10261;49.010;12.034;2023-07-30T00:55:49;4.35;;;2.88;;
20203;SDS011;10261;49.010;12.034;2023-07-30T00:56:51;4.55;;;2.85;;
20203;SDS011;10261;49.010;12.034;2023-07-30T00:57:55;7.22;;;3.45;;
20203;SDS011;10261;49.010;12.034;2023-07-30T00:58:58;3.67;;;2.80;;
20203;SDS011;10261;49.010;12.034;2023-07-30T01:00:01;4.57;;;2.85;;
20203;SDS011;10261;49.010;12.034;2023-07-30T01:01:05;5.43;;;3.15;;
20203;SDS011;10261;49.010;12.034;2023-07-30T01:02:08;3.42;;;3.13;;
20203;SDS011;10261;49.010;12.034;2023-07-30T01:03:10;3.90;;;3.50;;
20203;SDS011;10261;49.010;12.034;2023-07-30T01:04:13;3.00;;;2.33;;
20203;SDS011;10261;49.010;12.034;2023-07-30T01:05:16;5.82;;;2.80;;
20203;SDS011;10261;49.010;12.034;2023-07-30T01:06:19;6.70;;;3.33;;
20203;SDS011;10261;49.010;12.034;2023-07-30T01:07:22;3.78;;;2.30;;
20203;SDS011;10261;49.010;12.034;2023-07-30T01:08:26;4.60;;;3.08;;
20203;SDS011;10261;49.010;12.034;2023-07-30T01:09:28;4.15;;;3.45;;
20203;SDS011;10261;49.010;12.034;2023-07-30T01:10:31;4.90;;;2.60;;
20203;SDS011;10261;49.010;12.034;2023-07-30T01:11:35;4.00;;;3.08;;
20203;SDS011;10261;49.010;12.034;2023-07-30T01:12:40;2.70;;;2.50;;
20203;SDS011;10261;49.010;12.034;2023-07-30T01:13:43;6.43;;;2.80;;
20203;SDS011;10261;49.010;12.034;2023-07-30T01:14:49;3.75;;;3.25;;
20203;SDS011;10261;49.010;12.034;2023-07-30T01:15:51;5.20;;;3.35;;
20203;SDS011;10261;49.010;12.034;2023-07-30T01:16:54;7.22;;;3.03;;
20203;SDS011;10261;49.010;12.034;2023-07-30T01:17:57;6.30;;;3.53;;
20203;SDS011;10261;49.010;12.034;2023-07-30T01:19:00;4.25;;;3.13;;
20203;SDS011;10261;49.010;12.034;2023-07-30T01:20:05;4.82;;;3.25;;
20203;SDS011;10261;49.010;12.034;2023-07-30T01:21:10;4.80;;;3.03;;
20203;SDS011;10261;49.010;12.034;2023-07-30T01:22:12;4.80;;;2.97;;
20203;SDS011;10261;49.010;12.034;2023-07-30T01:23:15;3.33;;;2.35;;
20203;SDS011;10261;49.010;12.034;2023-07-30T01:24:17;3.83;;;3.28;;
20203;SDS011;10261;49.010;12.034;2023-07-30T01:25:20;3.10;;;2.50;;
20203;SDS011;10261;49.010;12.034;2023-07-30T01:26:27;6.50;;;3.80;;
20203;SDS011;10261;49.010;12.034;2023-07-30T01:27:36;4.65;;;3.40;;
20203;SDS011;10261;49.010;12.034;2023-07-30T01:28:43;3.10;;;2.80;;
20203;SDS011;10261;49.010;12.034;2023-07-30T01:29:51;4.00;;;3.10;;
20203;SDS011;10261;49.010;12.034;2023-07-30T01:30:55;4.53;;;3.25;;
20203;SDS011;10261;49.010;12.034;2023-07-30T01:32:04;3.42;;;3.13;;
20203;SDS011;10261;49.010;12.034;2023-07-30T01:33:08;6.22;;;2.50;;
20203;SDS011;10261;49.010;12.034;2023-07-30T01:34:13;8.40;;;3.08;;
20203;SDS011;10261;49.010;12.034;2023-07-30T01:35:16;8.40;;;3.28;;
20203;SDS011;10261;49.010;12.034;2023-07-30T01:36:22;3.25;;;2.95;;
20203;SDS011;10261;49.010;12.034;2023-07-30T01:37:24;6.50;;;3.75;;
20203;SDS011;10261;49.010;12.034;2023-07-30T01:38:28;4.13;;;3.17;;
20203;SDS011;10261;49.010;12.034;2023-07-30T01:39:31;3.90;;;2.75;;
20203;SDS011;10261;49.010;12.034;2023-07-30T01:40:35;3.92;;;3.33;;
20203;SDS011;10261;49.010;12.034;2023-07-30T01:41:37;3.58;;;3.20;;
20203;SDS011;10261;49.010;12.034;2023-07-30T01:42:40;4.30;;;3.20;;
20203;SDS011;10261;49.010;12.034;2023-07-30T01:43:43;3.28;;;2.70;;
20203;SDS011;10261;49.010;12.034;2023-07-30T01:44:46;7.03;;;3.55;;
20203;SDS011;10261;49.010;12.034;2023-07-30T01:45:48;4.95;;;2.75;;
20203;SDS011;10261;49.010;12.034;2023-07-30T01:46:51;4.72;;;3.33;;
20203;SDS011;10261;49.010;12.034;2023-07-30T01:47:53;11.68;;;3.53;;
20203;SDS011;10261;49.010;12.034;2023-07-30T01:48:56;3.40;;;3.10;;
20203;SDS011;10261;49.010;12.034;2023-07-30T01:49:58;4.28;;;3.20;;
20203;SDS011;10261;49.010;12.034;2023-07-30T01:51:01;7.55;;;3.42;;
20203;SDS011;10261;49.010;12.034;2023-07-30T01:52:04;3.55;;;3.25;;
20203;SDS011;10261;49.010;12.034;2023-07-30T01:53:07;3.65;;;3.13;;
20203;SDS011;10261;49.010;12.034;2023-07-30T01:54:09;4.97;;;3.25;;
20203;SDS011;10261;49.010;12.034;2023-07-30T01:55:12;5.75;;;3.50;;
20203;SDS011;10261;49.010;12.034;2023-07-30T01:56:14;4.13;;;2.63;;
20203;SDS011;10261;49.010;12.034;2023-07-30T01:57:17;3.67;;;2.60;;
20203;SDS011;10261;49.010;12.034;2023-07-30T01:58:19;4.90;;;3.33;;
20203;SDS011;10261;49.010;12.034;2023-07-30T01:59:22;9.27;;;3.25;;
20203;SDS011;10261;49.010;12.034;2023-07-30T02:00:24;4.97;;;3.20;;
20203;SDS011;10261;49.010;12.034;2023-07-30T02:01:27;4.32;;;3.08;;
20203;SDS011;10261;49.010;12.034;2023-07-30T02:02:29;5.45;;;3.50;;
20203;SDS011;10261;49.010;12.034;2023-07-30T02:03:32;3.95;;;3.28;;
20203;SDS011;10261;49.010;12.034;2023-07-30T02:04:34;3.30;;;2.97;;
20203;SDS011;10261;49.010;12.034;2023-07-30T02:05:37;2.80;;;2.25;;
20203;SDS011;10261;49.010;12.034;2023-07-30T02:06:39;3.95;;;2.80;;
20203;SDS011;10261;49.010;12.034;2023-07-30T02:07:43;3.60;;;3.15;;
20203;SDS011;10261;49.010;12.034;2023-07-30T02:08:45;5.65;;;3.70;;
20203;SDS011;10261;49.010;12.034;2023-07-30T02:09:47;4.60;;;3.75;;
20203;SDS011;10261;49.010;12.034;2023-07-30T02:10:55;5.07;;;3.55;;
20203;SDS011;10261;49.010;12.034;2023-07-30T02:11:58;6.78;;;4.03;;
20203;SDS011;10261;49.010;12.034;2023-07-30T02:13:00;8.55;;;3.50;;
20203;SDS011;10261;49.010;12.034;2023-07-30T02:14:03;16.08;;;3.72;;
20203;SDS011;10261;49.010;12.034;2023-07-30T02:15:06;4.03;;;3.10;;
20203;SDS011;10261;49.010;12.034;2023-07-30T02:16:09;7.53;;;3.70;;
20203;SDS011;10261;49.010;12.034;2023-07-30T02:17:11;4.55;;;3.55;;
20203;SDS011;10261;49.010;12.034;2023-07-30T02:18:14;3.90;;;3.33;;
20203;SDS011;10261;49.010;12.034;2023-07-30T02:19:16;6.97;;;3.60;;
20203;SDS011;10261;49.010;12.034;2023-07-30T02:20:18;5.15;;;3.72;;
20203;SDS011;10261;49.010;12.034;2023-07-30T02:21:21;4.53;;;3.13;;
20203;SDS011;10261;49.010;12.034;2023-07-30T02:22:23;8.38;;;4.00;;
20203;SDS011;10261;49.010;12.034;2023-07-30T02:23:27;4.68;;;3.30;;
20203;SDS011;10261;49.010;12.034;2023-07-30T02:24:30;4.13;;;3.72;;
20203;SDS011;10261;49.010;12.034;2023-07-30T02:25:32;4.35;;;3.25;;
20203;SDS011;10261;49.010;12.034;2023-07-30T02:26:35;4.18;;;3.15;;
20203;SDS011;10261;49.010;12.034;2023-07-30T02:27:37;6.20;;;3.10;;
20203;SDS011;10261;49.010;12.034;2023-07-30T02:28:40;3.58;;;3.28;;
20203;SDS011;10261;49.010;12.034;2023-07-30T02:29:42;3.92;;;3.58;;
20203;SDS011;10261;49.010;12.034;2023-07-30T02:30:45;5.25;;;3.67;;
20203;SDS011;10261;49.010;12.034;2023-07-30T02:31:47;3.83;;;3.15;;
20203;SDS011;10261;49.010;12.034;2023-07-30T02:32:50;5.78;;;3.00;;
20203;SDS011;10261;49.010;12.034;2023-07-30T02:33:52;4.85;;;3.45;;
20203;SDS011;10261;49.010;12.034;2023-07-30T02:34:54;9.13;;;4.18;;
20203;SDS011;10261;49.010;12.034;2023-07-30T02:35:57;4.03;;;3.13;;
20203;SDS011;10261;49.010;12.034;2023-07-30T02:36:59;3.60;;;3.00;;
20203;SDS011;10261;49.010;12.034;2023-07-30T02:38:02;6.38;;;3.40;;
20203;SDS011;10261;49.010;12.034;2023-07-30T02:39:06;4.30;;;3.00;;
20203;SDS011;10261;49.010;12.034;2023-07-30T02:40:09;4.57;;;2.95;;
20203;SDS011;10261;49.010;12.034;2023-07-30T02:41:12;3.13;;;2.83;;
20203;SDS011;10261;49.010;12.034;2023-07-30T02:42:15;2.67;;;2.42;;
20203;SDS011;10261;49.010;12.034;2023-07-30T02:43:16;4.38;;;3.22;;
20203;SDS011;10261;49.010;12.034;2023-07-30T02:44:20;5.20;;;2.90;;
20203;SDS011;10261;49.010;12.034;2023-07-30T02:45:22;3.63;;;2.90;;
20203;SDS011;10261;49.010;12.034;2023-07-30T02:46:25;4.65;;;2.67;;
20203;SDS011;10261;49.010;12.034;2023-07-30T02:47:27;5.72;;;3.50;;
20203;SDS011;10261;49.010;12.034;2023-07-30T02:48:30;5.93;;;3.35;;
20203;SDS011;10261;49.010;12.034;2023-07-30T02:49:32;3.70;;;3.03;;
20203;SDS011;10261;49.010;12.034;2023-07-30T02:50:35;4.18;;;3.10;;
20203;SDS011;10261;49.010;12.034;2023-07-30T02:51:37;3.20;;;2.70;;
20203;SDS011;10261;49.010;12.034;2023-07-30T02:52:40;3.67;;;3.08;;
20203;SDS011;10261;49.010;12.034;2023-07-30T02:53:42;5.15;;;2.83;;
20203;SDS011;10261;49.010;12.034;2023-07-30T02:54:47;3.70;;;3.30;;
20203;SDS011;10261;49.010;12.034;2023-07-30T02:55:49;4.68;;;2.92;;
20203;SDS011;10261;49.010;12.034;2023-07-30T02:56:52;5.22;;;3.42;;
20203;SDS011;10261;49.010;12.034;2023-07-30T02:57:54;3.90;;;3.15;;
20203;SDS011;10261;49.010;12.034;2023-07-30T02:58:58;3.80;;;3.38;;
20203;SDS011;10261;49.010;12.034;2023-07-30T03:00:00;4.18;;;2.85;;
20203;SDS011;10261;49.010;12.034;2023-07-30T03:01:05;6.72;;;3.10;;
20203;SDS011;10261;49.010;12.034;2023-07-30T03:02:08;4.57;;;3.20;;
20203;SDS011;10261;49.010;12.034;2023-07-30T03:03:11;3.97;;;2.90;;
20203;SDS011;10261;49.010;12.034;2023-07-30T03:04:13;5.05;;;3.17;;
20203;SDS011;10261;49.010;12.034;2023-07-30T03:05:16;3.55;;;3.00;;
20203;SDS011;10261;49.010;12.034;2023-07-30T03:06:17;3.40;;;2.90;;
20203;SDS011;10261;49.010;12.034;2023-07-30T03:07:20;3.95;;;2.90;;
20203;SDS011;10261;49.010;12.034;2023-07-30T03:08:22;4.80;;;3.58;;
20203;SDS011;10261;49.010;12.034;2023-07-30T03:09:25;3.88;;;3.10;;
20203;SDS011;10261;49.010;12.034;2023-07-30T03:10:30;4.60;;;3.42;;
20203;SDS011;10261;49.010;12.034;2023-07-30T03:11:33;4.50;;;2.88;;
20203;SDS011;10261;49.010;12.034;2023-07-30T03:12:35;4.50;;;2.80;;
20203;SDS011;10261;49.010;12.034;2023-07-30T03:13:38;8.23;;;3.03;;
20203;SDS011;10261;49.010;12.034;2023-07-30T03:14:40;4.22;;;3.83;;
20203;SDS011;10261;49.010;12.034;2023-07-30T03:15:43;5.15;;;3.05;;
20203;SDS011;10261;49.010;12.034;2023-07-30T03:16:45;5.68;;;3.20;;
20203;SDS011;10261;49.010;12.034;2023-07-30T03:17:48;3.15;;;2.80;;
20203;SDS011;10261;49.010;12.034;2023-07-30T03:18:50;5.72;;;3.33;;
20203;SDS011;10261;49.010;12.034;2023-07-30T03:19:53;5.05;;;3.08;;
20203;SDS011;10261;49.010;12.034;2023-07-30T03:20:57;3.38;;;2.53;;
20203;SDS011;10261;49.010;12.034;2023-07-30T03:22:01;3.28;;;2.55;;
20203;SDS011;10261;49.010;12.034;2023-07-30T03:23:02;5.90;;;2.97;;
20203;SDS011;10261;49.010;12.034;2023-07-30T03:24:05;5.20;;;3.25;;
20203;SDS011;10261;49.010;12.034;2023-07-30T03:25:07;4.60;;;2.65;;
20203;SDS011;10261;49.010;12.034;2023-07-30T03:26:12;2.90;;;2.70;;
20203;SDS011;10261;49.010;12.034;2023-07-30T03:27:13;4.30;;;3.20;;
20203;SDS011;10261;49.010;12.034;2023-07-30T03:28:16;4.93;;;3.33;;
20203;SDS011;10261;49.010;12.034;2023-07-30T03:29:18;4.00;;;3.00;;
20203;SDS011;10261;49.010;12.034;2023-07-30T03:30:21;3.95;;;2.90;;
20203;SDS011;10261;49.010;12.034;2023-07-30T03:31:23;5.07;;;3.10;;
20203;SDS011;10261;49.010;12.034;2023-07-30T03:32:26;4.50;;;3.38;;
20203;SDS011;10261;49.010;12.034;2023-07-30T03:33:28;6.40;;;3.00;;
20203;SDS011;10261;49.010;12.034;2023-07-30T03:34:31;4.28;;;3.35;;
20203;SDS011;10261;49.010;12.034;2023-07-30T03:35:33;3.35;;;2.50;;
20203;SDS011;10261;49.010;12.034;2023-07-30T03:36:37;3.75;;;2.70;;
20203;SDS011;10261;49.010;12.034;2023-07-30T03:37:39;3.75;;;3.35;;
20203;SDS011;10261;49.010;12.034;2023-07-30T03:38:42;5.68;;;3.10;;
20203;SDS011;10261;49.010;12.034;2023-07-30T03:39:45;7.93;;;3.50;;
20203;SDS011;10261;49.010;12.034;2023-07-30T03:40:47;3.15;;;2.78;;
20203;SDS011;10261;49.010;12.034;2023-07-30T03:41:51;4.95;;;3.80;;
20203;SDS011;10261;49.010;12.034;2023-07-30T03:42:53;3.90;;;3.35;;
20203;SDS011;10261;49.010;12.034;2023-07-30T03:43:56;8.70;;;3.10;;
20203;SDS011;10261;49.010;12.034;2023-07-30T03:44:58;4.05;;;3.08;;
20203;SDS011;10261;49.010;12.034;2023-07-30T03:46:01;6.22;;;2.95;;
20203;SDS011;10261;49.010;12.034;2023-07-30T03:47:03;4.88;;;3.70;;
20203;SDS011;10261;49.010;12.034;2023-07-30T03:48:06;4.75;;;3.70;;
20203;SDS011;10261;49.010;12.034;2023-07-30T03:49:08;2.63;;;2.38;;
20203;SDS011;10261;49.010;12.034;2023-07-30T03:50:11;4.20;;;3.00;;
20203;SDS011;10261;49.010;12.034;2023-07-30T03:51:13;3.03;;;2.83;;
20203;SDS011;10261;49.010;12.034;2023-07-30T03:52:16;2.80;;;2.50;;
20203;SDS011;10261;49.010;12.034;2023-07-30T03:53:18;3.85;;;2.90;;
20203;SDS011;10261;49.010;12.034;2023-07-30T03:54:22;3.72;;;2.67;;
20203;SDS011;10261;49.010;12.034;2023-07-30T03:55:24;3.78;;;2.35;;
20203;SDS011;10261;49.010;12.034;2023-07-30T03:56:27;3.25;;;2.95;;
20203;SDS011;10261;49.010;12.034;2023-07-30T03:57:30;2.67;;;2.47;;
20203;SDS011;10261;49.010;12.034;2023-07-30T03:58:33;6.30;;;2.63;;
20203;SDS011;10261;49.010;12.034;2023-07-30T03:59:37;2.83;;;2.13;;
20203;SDS011;10261;49.010;12.034;2023-07-30T04:00:39;3.70;;;2.80;;
20203;SDS011;10261;49.010;12.034;2023-07-30T04:01:42;4.90;;;2.35;;
20203;SDS011;10261;49.010;12.034;2023-07-30T04:02:44;2.25;;;2.05;;
20203;SDS011;10261;49.010;12.034;2023-07-30T04:03:47;5.25;;;3.15;;
20203;SDS011;10261;49.010;12.034;2023-07-30T04:04:49;3.97;;;2.72;;
20203;SDS011;10261;49.010;12.034;2023-07-30T04:05:52;6.88;;;3.00;;
20203;SDS011;10261;49.010;12.034;2023-07-30T04:06:54;3.90;;;3.30;;
20203;SDS011;10261;49.010;12.034;2023-07-30T04:07:57;3.35;;;2.80;;
20203;SDS011;10261;49.010;12.034;2023-07-30T04:08:59;4.45;;;2.40;;
20203;SDS011;10261;49.010;12.034;2023-07-30T04:10:02;2.50;;;2.30;;
20203;SDS011;10261;49.010;12.034;2023-07-30T04:11:05;3.72;;;3.42;;
20203;SDS011;10261;49.010;12.034;2023-07-30T04:12:08;12.55;;;2.47;;
20203;SDS011;10261;49.010;12.034;2023-07-30T04:13:11;2.95;;;2.65;;
20203;SDS011;10261;49.010;12.034;2023-07-30T04:14:14;2.67;;;2.35;;
20203;SDS011;10261;49.010;12.034;2023-07-30T04:15:16;2.63;;;2.42;;
20203;SDS011;10261;49.010;12.034;2023-07-30T04:16:19;3.45;;;2.00;;
20203;SDS011;10261;49.010;12.034;2023-07-30T04:17:21;1.70;;;1.60;;
20203;SDS011;10261;49.010;12.034;2023-07-30T04:18:24;2.03;;;1.77;;
20203;SDS011;10261;49.010;12.034;2023-07-30T04:19:26;2.53;;;1.85;;
20203;SDS011;10261;49.010;12.034;2023-07-30T04:20:29;3.80;;;1.90;;
20203;SDS011;10261;49.010;12.034;2023-07-30T04:21:31;6.88;;;1.88;;
20203;SDS011;10261;49.010;12.034;2023-07-30T04:22:33;2.67;;;1.98;;
20203;SDS011;10261;49.010;12.034;2023-07-30T04:23:36;2.60;;;2.28;;
20203;SDS011;10261;49.010;12.034;2023-07-30T04:24:39;3.53;;;1.95;;
20203;SDS011;10261;49.010;12.034;2023-07-30T04:25:42;2.25;;;1.55;;
20203;SDS011;10261;49.010;12.034;2023-07-30T04:26:45;2.25;;;1.67;;
20203;SDS011;10261;49.010;12.034;2023-07-30T04:27:47;3.65;;;2.00;;
20203;SDS011;10261;49.010;12.034;2023-07-30T04:28:51;1.80;;;1.50;;
20203;SDS011;10261;49.010;12.034;2023-07-30T04:29:53;1.80;;;1.52;;
20203;SDS011;10261;49.010;12.034;2023-07-30T04:30:56;1.80;;;1.38;;
20203;SDS011;10261;49.010;12.034;2023-07-30T04:31:58;4.25;;;1.63;;
20203;SDS011;10261;49.010;12.034;2023-07-30T04:33:00;1.92;;;1.58;;
20203;SDS011;10261;49.010;12.034;2023-07-30T04:34:03;3.42;;;2.47;;
20203;SDS011;10261;49.010;12.034;2023-07-30T04:35:06;1.70;;;1.58;;
20203;SDS011;10261;49.010;12.034;2023-07-30T04:36:09;3.22;;;1.80;;
20203;SDS011;10261;49.010;12.034;2023-07-30T04:37:11;3.17;;;1.73;;
20203;SDS011;10261;49.010;12.034;2023-07-30T04:38:14;4.65;;;2.30;;
20203;SDS011;10261;49.010;12.034;2023-07-30T04:39:16;2.40;;;2.20;;
20203;SDS011;10261;49.010;12.034;2023-07-30T04:40:19;1.95;;;1.67;;
20203;SDS011;10261;49.010;12.034;2023-07-30T04:41:21;4.60;;;1.85;;
20203;SDS011;10261;49.010;12.034;2023-07-30T04:42:24;2.92;;;1.92;;
20203;SDS011;10261;49.010;12.034;2023-07-30T04:43:26;2.13;;;1.80;;
20203;SDS011;10261;49.010;12.034;2023-07-30T04:44:31;2.80;;;2.28;;
20203;SDS011;10261;49.010;12.034;2023-07-30T04:45:33;2.75;;;1.88;;
20203;SDS011;10261;49.010;12.034;2023-07-30T04:46:36;3.95;;;1.58;;
20203;SDS011;10261;49.010;12.034;2023-07-30T04:47:38;2.00;;;1.65;;
20203;SDS011;10261;49.010;12.034;2023-07-30T04:48:41;1.92;;;1.70;;
20203;SDS011;10261;49.010;12.034;2023-07-30T04:49:43;3.42;;;2.20;;
20203;SDS011;10261;49.010;12.034;2023-07-30T04:50:46;3.08;;;1.90;;
20203;SDS011;10261;49.010;12.034;2023-07-30T04:51:47;1.88;;;1.65;;
20203;SDS011;10261;49.010;12.034;2023-07-30T04:52:51;2.42;;;2.15;;
20203;SDS011;10261;49.010;12.034;2023-07-30T04:53:53;1.98;;;1.77;;
20203;SDS011;10261;49.010;12.034;2023-07-30T04:54:56;2.95;;;2.00;;
20203;SDS011;10261;49.010;12.034;2023-07-30T04:55:58;3.55;;;1.90;;
20203;SDS011;10261;49.010;12.034;2023-07-30T04:57:01;1.90;;;1.65;;
20203;SDS011;10261;49.010;12.034;2023-07-30T04:58:03;8.90;;;1.70;;
20203;SDS011;10261;49.010;12.034;2023-07-30T04:59:06;2.63;;;2.30;;
20203;SDS011;10261;49.010;12.034;2023-07-30T05:00:10;4.38;;;1.90;;
20203;SDS011;10261;49.010;12.034;2023-07-30T05:01:14;2.25;;;1.90;;
20203;SDS011;10261;49.010;12.034;2023-07-30T05:02:16;3.83;;;2.30;;
20203;SDS011;10261;49.010;12.034;2023-07-30T05:03:19;2.25;;;1.98;;
20203;SDS011;10261;49.010;12.034;2023-07-30T05:04:21;3.85;;;1.90;;
20203;SDS011;10261;49.010;12.034;2023-07-30T05:05:24;2.95;;;2.15;;
20203;SDS011;10261;49.010;12.034;2023-07-30T05:06:25;2.35;;;2.00;;
20203;SDS011;10261;49.010;12.034;2023-07-30T05:07:29;3.00;;;2.13;;
20203;SDS011;10261;49.010;12.034;2023-07-30T05:08:31;3.60;;;1.88;;
20203;SDS011;10261;49.010;12.034;2023-07-30T05:09:34;3.33;;;2.28;;
20203;SDS011;10261;49.010;12.034;2023-07-30T05:10:36;2.25;;;1.95;;
20203;SDS011;10261;49.010;12.034;2023-07-30T05:11:39;2.15;;;1.95;;
20203;SDS011;10261;49.010;12.034;2023-07-30T05:12:41;2.13;;;1.92;;
20203;SDS011;10261;49.010;12.034;2023-07-30T05:13:44;2.13;;;1.90;;
20203;SDS011;10261;49.010;12.034;2023-07-30T05:14:46;3.85;;;1.95;;
20203;SDS011;10261;49.010;12.034;2023-07-30T05:15:50;2.20;;;1.90;;
20203;SDS011;10261;49.010;12.034;2023-07-30T05:16:52;2.70;;;1.75;;
20203;SDS011;10261;49.010;12.034;2023-07-30T05:17:55;2.42;;;1.67;;
20203;SDS011;10261;49.010;12.034;2023-07-30T05:18:57;1.90;;;1.70;;
20203;SDS011;10261;49.010;12.034;2023-07-30T05:20:00;2.45;;;1.80;;
20203;SDS011;10261;49.010;12.034;2023-07-30T05:21:02;5.53;;;2.33;;
20203;SDS011;10261;49.010;12.034;2023-07-30T05:22:05;7.60;;;2.60;;
20203;SDS011;10261;49.010;12.034;2023-07-30T05:23:09;2.40;;;1.80;;
20203;SDS011;10261;49.010;12.034;2023-07-30T05:24:11;2.63;;;1.67;;
20203;SDS011;10261;49.010;12.034;2023-07-30T05:25:13;2.92;;;1.83;;
20203;SDS011;10261;49.010;12.034;2023-07-30T05:26:16;2.38;;;2.05;;
20203;SDS011;10261;49.010;12.034;2023-07-30T05:27:18;2.38;;;2.17;;
20203;SDS011;10261;49.010;12.034;2023-07-30T05:28:21;2.47;;;1.70;;
20203;SDS011;10261;49.010;12.034;2023-07-30T05:29:23;2.15;;;1.80;;
20203;SDS011;10261;49.010;12.034;2023-07-30T05:30:26;2.05;;;1.50;;
20203;SDS011;10261;49.010;12.034;2023-07-30T05:31:29;2.20;;;2.00;;
20203;SDS011;10261;49.010;12.034;2023-07-30T05:32:32;2.00;;;1.67;;
20203;SDS011;10261;49.010;12.034;2023-07-30T05:33:34;3.15;;;1.48;;
20203;SDS011;10261;49.010;12.034;2023-07-30T05:34:37;3.28;;;2.10;;
20203;SDS011;10261;49.010;12.034;2023-07-30T05:35:39;1.80;;;1.67;;
20203;SDS011;10261;49.010;12.034;2023-07-30T05:36:41;2.42;;;1.70;;
20203;SDS011;10261;49.010;12.034;2023-07-30T05:37:44;3.75;;;1.48;;
20203;SDS011;10261;49.010;12.034;2023-07-30T05:38:46;3.05;;;2.00;;
20203;SDS011;10261;49.010;12.034;2023-07-30T05:39:49;1.90;;;1.65;;
20203;SDS011;10261;49.010;12.034;2023-07-30T05:40:50;1.95;;;1.73;;
20203;SDS011;10261;49.010;12.034;2023-07-30T05:41:53;3.45;;;1.83;;
20203;SDS011;10261;49.010;12.034;2023-07-30T05:42:55;1.80;;;1.45;;
20203;SDS011;10261;49.010;12.034;2023-07-30T05:43:58;2.00;;;1.50;;
20203;SDS011;10261;49.010;12.034;2023-07-30T05:45:00;2.92;;;1.40;;
20203;SDS011;10261;49.010;12.034;2023-07-30T05:46:03;2.30;;;1.55;;
20203;SDS011;10261;49.010;12.034;2023-07-30T05:47:06;2.55;;;1.30;;
20203;SDS011;10261;49.010;12.034;2023-07-30T05:48:09;2.20;;;1.50;;
20203;SDS011;10261;49.010;12.034;2023-07-30T05:49:11;2.42;;;1.42;;
20203;SDS011;10261;49.010;12.034;2023-07-30T05:50:16;2.08;;;1.33;;
20203;SDS011;10261;49.010;12.034;2023-07-30T05:51:18;1.85;;;1.40;;
20203;SDS011;10261;49.010;12.034;2023-07-30T05:52:21;2.53;;;1.48;;
20203;SDS011;10261;49.010;12.034;2023-07-30T05:53:23;2.40;;;1.50;;
20203;SDS011;10261;49.010;12.034;2023-07-30T05:54:25;4.72;;;1.58;;
20203;SDS011;10261;49.010;12.034;2023-07-30T05:55:27;2.40;;;1.63;;
20203;SDS011;10261;49.010;12.034;2023-07-30T05:56:30;4.65;;;1.55;;
20203;SDS011;10261;49.010;12.034;2023-07-30T05:57:32;1.63;;;1.20;;
20203;SDS011;10261;49.010;12.034;2023-07-30T05:58:34;2.10;;;1.50;;
20203;SDS011;10261;49.010;12.034;2023-07-30T05:59:37;2.20;;;1.23;;
20203;SDS011;10261;49.010;12.034;2023-07-30T06:00:39;2.20;;;1.80;;
20203;SDS011;10261;49.010;12.034;2023-07-30T06:01:42;2.03;;;1.42;;
20203;SDS011;10261;49.010;12.034;2023-07-30T06:02:45;2.95;;;1.70;;
20203;SDS011;10261;49.010;12.034;2023-07-30T06:03:48;1.60;;;1.27;;
20203;SDS011;10261;49.010;12.034;2023-07-30T06:04:50;2.15;;;1.50;;
20203;SDS011;10261;49.010;12.034;2023-07-30T06:05:53;1.70;;;1.45;;
20203;SDS011;10261;49.010;12.034;2023-07-30T06:06:55;1.33;;;1.17;;
20203;SDS011;10261;49.010;12.034;2023-07-30T06:07:58;1.73;;;1.38;;
20203;SDS011;10261;49.010;12.034;2023-07-30T06:09:00;2.00;;;1.50;;
20203;SDS011;10261;49.010;12.034;2023-07-30T06:10:03;1.65;;;1.20;;
20203;SDS011;10261;49.010;12.034;2023-07-30T06:11:06;1.80;;;1.30;;
20203;SDS011;10261;49.010;12.034;2023-07-30T06:12:09;1.60;;;1.40;;